sensor_id;sensor_type;location;lat;lon;timestamp;temperature;humidity
14210;DHT22;7188;56.070;12.698;2023-11-21T00:02:14;3.80;99.90
14210;DHT22;7188;56.070;12.698;2023-11-21T00:04:39;3.80;99.90
14210;DHT22;7188;56.070;12.698;2023-11-21T00:07:05;3.80;99.90
14210;DHT22;7188;56.070;12.698;2023-11-21T00:09:32;3.70;99.90
14210;DHT22;7188;56.070;12.698;2023-11-21T00:11:57;3.70;99.90
14210;DHT22;7188;56.070;12.698;2023-11-21T00:14:24;3.70;99.90
14210;DHT22;7188;56.070;12.698;2023-11-21T00:16:50;3.70;99.90
14210;DHT22;7188;56.070;12.698;2023-11-21T00:19:16;3.70;99.90
14210;DHT22;7188;56.070;12.698;2023-11-21T00:21:42;3.60;99.90
14210;DHT22;7188;56.070;12.698;2023-11-21T00:24:10;3.60;99.90
14210;DHT22;7188;56.070;12.698;2023-11-21T00:26:38;3.60;99.90
14210;DHT22;7188;56.070;12.698;2023-11-21T00:29:04;3.60;99.90
14210;DHT22;7188;56.070;12.698;2023-11-21T00:31:33;3.60;99.90
14210;DHT22;7188;56.070;12.698;2023-11-21T00:33:59;3.60;99.90
14210;DHT22;7188;56.070;12.698;2023-11-21T00:36:25;3.60;99.90
14210;DHT22;7188;56.070;12.698;2023-11-21T00:38:51;3.60;99.90
14210;DHT22;7188;56.070;12.698;2023-11-21T00:41:16;3.60;99.90
14210;DHT22;7188;56.070;12.698;2023-11-21T00:43:42;3.60;99.90
14210;DHT22;7188;56.070;12.698;2023-11-21T00:46:13;3.60;99.90
14210;DHT22;7188;56.070;12.698;2023-11-21T00:48:39;3.60;99.90
14210;DHT22;7188;56.070;12.698;2023-11-21T00:51:05;3.60;99.90
14210;DHT22;7188;56.070;12.698;2023-11-21T00:53:31;3.60;99.90
14210;DHT22;7188;56.070;12.698;2023-11-21T00:55:57;3.60;99.90
14210;DHT22;7188;56.070;12.698;2023-11-21T00:58:26;3.60;99.90
14210;DHT22;7188;56.070;12.698;2023-11-21T01:00:52;3.60;99.90
14210;DHT22;7188;56.070;12.698;2023-11-21T01:03:18;3.60;99.90
14210;DHT22;7188;56.070;12.698;2023-11-21T01:05:44;3.60;99.90
14210;DHT22;7188;56.070;12.698;2023-11-21T01:08:10;3.60;99.90
14210;DHT22;7188;56.070;12.698;2023-11-21T01:10:36;3.60;99.90
14210;DHT22;7188;56.070;12.698;2023-11-21T01:13:02;3.60;99.90
14210;DHT22;7188;56.070;12.698;2023-11-21T01:15:31;3.60;99.90
14210;DHT22;7188;56.070;12.698;2023-11-21T01:17:57;3.60;99.90
14210;DHT22;7188;56.070;12.698;2023-11-21T01:20:22;3.50;99.90
14210;DHT22;7188;56.070;12.698;2023-11-21T01:22:48;3.50;99.90
14210;DHT22;7188;56.070;12.698;2023-11-21T01:25:14;3.50;99.90
14210;DHT22;7188;56.070;12.698;2023-11-21T01:27:41;3.50;99.90
14210;DHT22;7188;56.070;12.698;2023-11-21T01:30:07;3.60;99.90
14210;DHT22;7188;56.070;12.698;2023-11-21T01:32:38;3.50;99.90
14210;DHT22;7188;56.070;12.698;2023-11-21T01:35:05;3.50;99.90
14210;DHT22;7188;56.070;12.698;2023-11-21T01:37:32;3.60;99.90
14210;DHT22;7188;56.070;12.698;2023-11-21T01:39:58;3.50;99.90
14210;DHT22;7188;56.070;12.698;2023-11-21T01:42:24;3.50;99.90
14210;DHT22;7188;56.070;12.698;2023-11-21T01:44:50;3.50;99.90
14210;DHT22;7188;56.070;12.698;2023-11-21T01:47:16;3.50;99.90
14210;DHT22;7188;56.070;12.698;2023-11-21T01:49:45;3.50;99.90
14210;DHT22;7188;56.070;12.698;2023-11-21T01:52:12;3.50;99.90
14210;DHT22;7188;56.070;12.698;2023-11-21T01:54:38;3.50;99.90
14210;DHT22;7188;56.070;12.698;2023-11-21T01:57:04;3.50;99.90
14210;DHT22;7188;56.070;12.698;2023-11-21T01:59:36;3.50;99.90
14210;DHT22;7188;56.070;12.698;2023-11-21T02:02:03;3.50;99.90
14210;DHT22;7188;56.070;12.698;2023-11-21T02:04:31;3.50;99.90
14210;DHT22;7188;56.070;12.698;2023-11-21T02:06:57;3.50;99.90
14210;DHT22;7188;56.070;12.698;2023-11-21T02:09:27;3.50;99.90
14210;DHT22;7188;56.070;12.698;2023-11-21T02:11:54;3.40;99.90
14210;DHT22;7188;56.070;12.698;2023-11-21T02:14:20;3.50;99.90
14210;DHT22;7188;56.070;12.698;2023-11-21T02:16:51;3.50;99.90
14210;DHT22;7188;56.070;12.698;2023-11-21T02:19:21;3.40;99.90
14210;DHT22;7188;56.070;12.698;2023-11-21T02:21:56;3.40;99.90
14210;DHT22;7188;56.070;12.698;2023-11-21T02:24:24;3.40;99.90
14210;DHT22;7188;56.070;12.698;2023-11-21T02:26:51;3.50;99.90
14210;DHT22;7188;56.070;12.698;2023-11-21T02:29:18;3.40;99.90
14210;DHT22;7188;56.070;12.698;2023-11-21T02:31:52;3.50;99.90
14210;DHT22;7188;56.070;12.698;2023-11-21T02:34:20;3.40;99.90
14210;DHT22;7188;56.070;12.698;2023-11-21T02:36:45;3.40;99.90
14210;DHT22;7188;56.070;12.698;2023-11-21T02:39:13;3.30;99.90
14210;DHT22;7188;56.070;12.698;2023-11-21T02:41:38;3.30;99.90
14210;DHT22;7188;56.070;12.698;2023-11-21T02:44:05;3.30;99.90
14210;DHT22;7188;56.070;12.698;2023-11-21T02:46:32;3.30;99.90
14210;DHT22;7188;56.070;12.698;2023-11-21T02:49:00;3.30;99.90
14210;DHT22;7188;56.070;12.698;2023-11-21T02:51:26;3.30;99.90
14210;DHT22;7188;56.070;12.698;2023-11-21T02:53:51;3.30;99.90
14210;DHT22;7188;56.070;12.698;2023-11-21T02:56:17;3.30;99.90
14210;DHT22;7188;56.070;12.698;2023-11-21T02:58:43;3.30;99.90
14210;DHT22;7188;56.070;12.698;2023-11-21T03:01:10;3.20;99.90
14210;DHT22;7188;56.070;12.698;2023-11-21T03:03:39;3.20;99.90
14210;DHT22;7188;56.070;12.698;2023-11-21T03:06:08;3.20;99.90
14210;DHT22;7188;56.070;12.698;2023-11-21T03:08:34;3.20;99.90
14210;DHT22;7188;56.070;12.698;2023-11-21T03:11:01;3.10;99.90
14210;DHT22;7188;56.070;12.698;2023-11-21T03:13:28;3.10;99.90
14210;DHT22;7188;56.070;12.698;2023-11-21T03:15:54;3.10;99.90
14210;DHT22;7188;56.070;12.698;2023-11-21T03:18:20;3.20;99.90
14210;DHT22;7188;56.070;12.698;2023-11-21T03:20:47;3.10;99.90
14210;DHT22;7188;56.070;12.698;2023-11-21T03:23:13;3.10;99.90
14210;DHT22;7188;56.070;12.698;2023-11-21T03:25:38;3.10;99.90
14210;DHT22;7188;56.070;12.698;2023-11-21T03:28:04;3.10;99.90
14210;DHT22;7188;56.070;12.698;2023-11-21T03:30:30;3.10;99.90
14210;DHT22;7188;56.070;12.698;2023-11-21T03:32:55;3.10;99.90
14210;DHT22;7188;56.070;12.698;2023-11-21T03:35:22;3.00;99.90
14210;DHT22;7188;56.070;12.698;2023-11-21T03:37:47;3.00;99.90
14210;DHT22;7188;56.070;12.698;2023-11-21T03:40:13;3.00;99.90
14210;DHT22;7188;56.070;12.698;2023-11-21T03:42:39;2.90;99.90
14210;DHT22;7188;56.070;12.698;2023-11-21T03:45:08;3.00;99.90
14210;DHT22;7188;56.070;12.698;2023-11-21T03:47:34;2.90;99.90
14210;DHT22;7188;56.070;12.698;2023-11-21T03:49:59;2.90;99.90
14210;DHT22;7188;56.070;12.698;2023-11-21T03:52:25;2.90;99.90
14210;DHT22;7188;56.070;12.698;2023-11-21T03:54:52;2.90;99.90
14210;DHT22;7188;56.070;12.698;2023-11-21T03:57:18;2.90;99.90
14210;DHT22;7188;56.070;12.698;2023-11-21T03:59:43;2.90;99.90
14210;DHT22;7188;56.070;12.698;2023-11-21T04:02:09;2.90;99.90
14210;DHT22;7188;56.070;12.698;2023-11-21T04:04:38;3.00;99.90
14210;DHT22;7188;56.070;12.698;2023-11-21T04:07:04;2.90;99.90
14210;DHT22;7188;56.070;12.698;2023-11-21T04:09:30;3.00;99.90
14210;DHT22;7188;56.070;12.698;2023-11-21T04:11:56;3.00;99.90
14210;DHT22;7188;56.070;12.698;2023-11-21T04:14:22;3.00;99.90
14210;DHT22;7188;56.070;12.698;2023-11-21T04:16:48;3.00;99.90
14210;DHT22;7188;56.070;12.698;2023-11-21T04:19:14;3.00;99.90
14210;DHT22;7188;56.070;12.698;2023-11-21T04:21:41;3.00;99.90
14210;DHT22;7188;56.070;12.698;2023-11-21T04:24:07;3.00;99.90
14210;DHT22;7188;56.070;12.698;2023-11-21T04:26:33;3.00;99.90
14210;DHT22;7188;56.070;12.698;2023-11-21T04:28:58;3.00;99.90
14210;DHT22;7188;56.070;12.698;2023-11-21T04:31:24;3.00;99.90
14210;DHT22;7188;56.070;12.698;2023-11-21T04:33:49;3.00;99.90
14210;DHT22;7188;56.070;12.698;2023-11-21T04:36:15;3.00;99.90
14210;DHT22;7188;56.070;12.698;2023-11-21T04:38:41;3.00;99.90
14210;DHT22;7188;56.070;12.698;2023-11-21T04:41:07;3.00;99.90
14210;DHT22;7188;56.070;12.698;2023-11-21T04:43:33;3.00;99.90
14210;DHT22;7188;56.070;12.698;2023-11-21T04:45:58;3.00;99.90
14210;DHT22;7188;56.070;12.698;2023-11-21T04:48:24;3.00;99.90
14210;DHT22;7188;56.070;12.698;2023-11-21T04:50:50;3.00;99.90
14210;DHT22;7188;56.070;12.698;2023-11-21T04:53:17;3.00;99.90
14210;DHT22;7188;56.070;12.698;2023-11-21T04:55:43;2.90;99.90
14210;DHT22;7188;56.070;12.698;2023-11-21T04:58:09;3.00;99.90
14210;DHT22;7188;56.070;12.698;2023-11-21T05:00:35;3.00;99.90
14210;DHT22;7188;56.070;12.698;2023-11-21T05:03:02;3.00;99.90
14210;DHT22;7188;56.070;12.698;2023-11-21T05:05:28;3.00;99.90
14210;DHT22;7188;56.070;12.698;2023-11-21T05:07:55;3.00;99.90
14210;DHT22;7188;56.070;12.698;2023-11-21T05:10:20;3.00;99.90
14210;DHT22;7188;56.070;12.698;2023-11-21T05:12:48;2.90;99.90
14210;DHT22;7188;56.070;12.698;2023-11-21T05:15:17;3.00;99.90
14210;DHT22;7188;56.070;12.698;2023-11-21T05:17:43;3.00;99.90
14210;DHT22;7188;56.070;12.698;2023-11-21T05:20:15;3.00;99.90
14210;DHT22;7188;56.070;12.698;2023-11-21T05:22:47;3.00;99.90
14210;DHT22;7188;56.070;12.698;2023-11-21T05:25:14;3.10;99.90
14210;DHT22;7188;56.070;12.698;2023-11-21T05:27:39;3.10;99.90
14210;DHT22;7188;56.070;12.698;2023-11-21T05:30:06;3.10;99.90
14210;DHT22;7188;56.070;12.698;2023-11-21T05:32:33;3.10;99.90
14210;DHT22;7188;56.070;12.698;2023-11-21T05:34:59;3.10;99.90
14210;DHT22;7188;56.070;12.698;2023-11-21T05:37:24;3.10;99.90
14210;DHT22;7188;56.070;12.698;2023-11-21T05:39:55;3.10;99.90
14210;DHT22;7188;56.070;12.698;2023-11-21T05:42:23;3.10;99.90
14210;DHT22;7188;56.070;12.698;2023-11-21T05:44:49;3.10;99.90
14210;DHT22;7188;56.070;12.698;2023-11-21T05:47:15;3.10;99.90
14210;DHT22;7188;56.070;12.698;2023-11-21T05:49:40;3.10;99.90
14210;DHT22;7188;56.070;12.698;2023-11-21T05:52:06;3.10;99.90
14210;DHT22;7188;56.070;12.698;2023-11-21T05:54:32;3.10;99.90
14210;DHT22;7188;56.070;12.698;2023-11-21T05:56:58;3.10;99.90
14210;DHT22;7188;56.070;12.698;2023-11-21T05:59:24;3.10;99.90
14210;DHT22;7188;56.070;12.698;2023-11-21T06:01:50;3.10;99.90
14210;DHT22;7188;56.070;12.698;2023-11-21T06:04:15;3.10;99.90
14210;DHT22;7188;56.070;12.698;2023-11-21T06:06:41;3.10;99.90
14210;DHT22;7188;56.070;12.698;2023-11-21T06:09:06;3.10;99.90
14210;DHT22;7188;56.070;12.698;2023-11-21T06:11:35;3.10;99.90
14210;DHT22;7188;56.070;12.698;2023-11-21T06:14:01;3.10;99.90
14210;DHT22;7188;56.070;12.698;2023-11-21T06:16:26;3.20;99.90
14210;DHT22;7188;56.070;12.698;2023-11-21T06:18:53;3.10;99.90
14210;DHT22;7188;56.070;12.698;2023-11-21T06:21:19;3.20;99.90
14210;DHT22;7188;56.070;12.698;2023-11-21T06:23:44;3.10;99.90
14210;DHT22;7188;56.070;12.698;2023-11-21T06:26:10;3.10;99.90
14210;DHT22;7188;56.070;12.698;2023-11-21T06:28:35;3.10;99.90
14210;DHT22;7188;56.070;12.698;2023-11-21T06:31:02;3.10;99.90
14210;DHT22;7188;56.070;12.698;2023-11-21T06:33:31;3.10;99.90
14210;DHT22;7188;56.070;12.698;2023-11-21T06:35:57;3.10;99.90
14210;DHT22;7188;56.070;12.698;2023-11-21T06:38:23;3.10;99.90
14210;DHT22;7188;56.070;12.698;2023-11-21T06:40:48;3.20;99.90
14210;DHT22;7188;56.070;12.698;2023-11-21T06:43:14;3.20;99.90
14210;DHT22;7188;56.070;12.698;2023-11-21T06:45:40;3.20;99.90
14210;DHT22;7188;56.070;12.698;2023-11-21T06:48:05;3.20;99.90
14210;DHT22;7188;56.070;12.698;2023-11-21T06:50:31;3.20;99.90
14210;DHT22;7188;56.070;12.698;2023-11-21T06:52:56;3.10;99.90
14210;DHT22;7188;56.070;12.698;2023-11-21T06:55:22;3.20;99.90
14210;DHT22;7188;56.070;12.698;2023-11-21T06:57:48;3.20;99.90
14210;DHT22;7188;56.070;12.698;2023-11-21T07:00:15;3.20;99.90
14210;DHT22;7188;56.070;12.698;2023-11-21T07:02:43;3.20;99.90
14210;DHT22;7188;56.070;12.698;2023-11-21T07:05:09;3.20;99.90
14210;DHT22;7188;56.070;12.698;2023-11-21T07:07:35;3.20;99.90
14210;DHT22;7188;56.070;12.698;2023-11-21T07:10:03;3.20;99.90
14210;DHT22;7188;56.070;12.698;2023-11-21T07:12:30;3.20;99.90
14210;DHT22;7188;56.070;12.698;2023-11-21T07:14:56;3.20;99.90
14210;DHT22;7188;56.070;12.698;2023-11-21T07:17:22;3.20;99.90
14210;DHT22;7188;56.070;12.698;2023-11-21T07:19:48;3.20;99.90
14210;DHT22;7188;56.070;12.698;2023-11-21T07:22:15;3.10;99.90
14210;DHT22;7188;56.070;12.698;2023-11-21T07:24:48;3.10;99.90
14210;DHT22;7188;56.070;12.698;2023-11-21T07:27:14;3.20;99.90
14210;DHT22;7188;56.070;12.698;2023-11-21T07:29:39;3.20;99.90
14210;DHT22;7188;56.070;12.698;2023-11-21T07:32:06;3.10;99.90
14210;DHT22;7188;56.070;12.698;2023-11-21T07:34:31;3.10;99.90
14210;DHT22;7188;56.070;12.698;2023-11-21T07:36:57;3.10;99.90
14210;DHT22;7188;56.070;12.698;2023-11-21T07:39:22;3.20;99.90
14210;DHT22;7188;56.070;12.698;2023-11-21T07:41:48;3.20;99.90
14210;DHT22;7188;56.070;12.698;2023-11-21T07:44:18;3.20;99.90
14210;DHT22;7188;56.070;12.698;2023-11-21T07:46:45;3.20;99.90
14210;DHT22;7188;56.070;12.698;2023-11-21T07:49:11;3.20;99.90
14210;DHT22;7188;56.070;12.698;2023-11-21T07:51:36;3.30;99.90
14210;DHT22;7188;56.070;12.698;2023-11-21T07:54:02;3.30;99.90
14210;DHT22;7188;56.070;12.698;2023-11-21T07:56:27;3.30;99.90
14210;DHT22;7188;56.070;12.698;2023-11-21T07:58:53;3.30;99.90
14210;DHT22;7188;56.070;12.698;2023-11-21T08:01:19;3.20;99.90
14210;DHT22;7188;56.070;12.698;2023-11-21T08:03:45;3.30;99.90
14210;DHT22;7188;56.070;12.698;2023-11-21T08:06:10;3.30;99.90
14210;DHT22;7188;56.070;12.698;2023-11-21T08:08:37;3.30;99.90
14210;DHT22;7188;56.070;12.698;2023-11-21T08:11:03;3.30;99.90
14210;DHT22;7188;56.070;12.698;2023-11-21T08:13:29;3.30;99.90
14210;DHT22;7188;56.070;12.698;2023-11-21T08:15:58;3.30;99.90
14210;DHT22;7188;56.070;12.698;2023-11-21T08:18:28;3.40;99.90
14210;DHT22;7188;56.070;12.698;2023-11-21T08:20:55;3.40;99.90
14210;DHT22;7188;56.070;12.698;2023-11-21T08:23:21;3.40;99.90
14210;DHT22;7188;56.070;12.698;2023-11-21T08:25:51;3.40;99.90
14210;DHT22;7188;56.070;12.698;2023-11-21T08:28:16;3.40;99.90
14210;DHT22;7188;56.070;12.698;2023-11-21T08:30:42;3.40;99.90
14210;DHT22;7188;56.070;12.698;2023-11-21T08:33:08;3.40;99.90
14210;DHT22;7188;56.070;12.698;2023-11-21T08:35:34;3.50;99.90
14210;DHT22;7188;56.070;12.698;2023-11-21T08:38:02;3.40;99.90
14210;DHT22;7188;56.070;12.698;2023-11-21T08:40:28;3.40;99.90
14210;DHT22;7188;56.070;12.698;2023-11-21T08:42:54;3.50;99.90
14210;DHT22;7188;56.070;12.698;2023-11-21T08:45:21;3.40;99.90
14210;DHT22;7188;56.070;12.698;2023-11-21T08:47:47;3.40;99.90
14210;DHT22;7188;56.070;12.698;2023-11-21T08:50:14;3.40;99.90
14210;DHT22;7188;56.070;12.698;2023-11-21T08:52:40;3.40;99.90
14210;DHT22;7188;56.070;12.698;2023-11-21T08:55:07;3.40;99.90
14210;DHT22;7188;56.070;12.698;2023-11-21T08:57:38;3.40;99.90
14210;DHT22;7188;56.070;12.698;2023-11-21T09:00:05;3.40;99.90
14210;DHT22;7188;56.070;12.698;2023-11-21T09:02:35;3.40;99.90
14210;DHT22;7188;56.070;12.698;2023-11-21T09:05:03;3.40;99.90
14210;DHT22;7188;56.070;12.698;2023-11-21T09:07:29;3.40;99.90
14210;DHT22;7188;56.070;12.698;2023-11-21T09:09:55;3.40;99.90
14210;DHT22;7188;56.070;12.698;2023-11-21T09:12:20;3.40;99.90
14210;DHT22;7188;56.070;12.698;2023-11-21T09:14:47;3.50;99.90
14210;DHT22;7188;56.070;12.698;2023-11-21T09:17:12;3.50;99.90
14210;DHT22;7188;56.070;12.698;2023-11-21T09:19:40;3.50;99.90
14210;DHT22;7188;56.070;12.698;2023-11-21T09:22:06;3.40;99.90
14210;DHT22;7188;56.070;12.698;2023-11-21T09:24:32;3.50;99.90
14210;DHT22;7188;56.070;12.698;2023-11-21T09:26:58;3.50;99.90
14210;DHT22;7188;56.070;12.698;2023-11-21T09:29:28;3.50;99.90
14210;DHT22;7188;56.070;12.698;2023-11-21T09:31:57;3.50;99.90
14210;DHT22;7188;56.070;12.698;2023-11-21T09:34:25;3.50;99.90
14210;DHT22;7188;56.070;12.698;2023-11-21T09:36:51;3.50;99.90
14210;DHT22;7188;56.070;12.698;2023-11-21T09:39:17;3.50;99.90
14210;DHT22;7188;56.070;12.698;2023-11-21T09:41:50;3.50;99.90
14210;DHT22;7188;56.070;12.698;2023-11-21T09:44:25;3.60;99.90
14210;DHT22;7188;56.070;12.698;2023-11-21T09:46:56;3.60;99.90
14210;DHT22;7188;56.070;12.698;2023-11-21T09:49:26;3.60;99.90
14210;DHT22;7188;56.070;12.698;2023-11-21T09:51:57;3.70;99.90
14210;DHT22;7188;56.070;12.698;2023-11-21T09:54:24;3.60;99.90
14210;DHT22;7188;56.070;12.698;2023-11-21T09:56:50;3.70;99.90
14210;DHT22;7188;56.070;12.698;2023-11-21T09:59:16;3.70;99.90
14210;DHT22;7188;56.070;12.698;2023-11-21T10:01:42;3.70;99.90
14210;DHT22;7188;56.070;12.698;2023-11-21T10:04:09;3.70;99.90
14210;DHT22;7188;56.070;12.698;2023-11-21T10:06:40;3.70;99.90
14210;DHT22;7188;56.070;12.698;2023-11-21T10:09:12;3.70;99.90
14210;DHT22;7188;56.070;12.698;2023-11-21T10:11:42;3.70;99.90
14210;DHT22;7188;56.070;12.698;2023-11-21T10:14:12;3.70;99.90
14210;DHT22;7188;56.070;12.698;2023-11-21T10:16:40;3.60;99.90
14210;DHT22;7188;56.070;12.698;2023-11-21T10:19:06;3.60;99.90
14210;DHT22;7188;56.070;12.698;2023-11-21T10:21:35;3.60;99.90
14210;DHT22;7188;56.070;12.698;2023-11-21T10:24:01;3.60;99.90
14210;DHT22;7188;56.070;12.698;2023-11-21T10:26:28;3.60;99.90
14210;DHT22;7188;56.070;12.698;2023-11-21T10:29:02;3.60;99.90
14210;DHT22;7188;56.070;12.698;2023-11-21T10:31:31;3.60;99.90
14210;DHT22;7188;56.070;12.698;2023-11-21T10:34:18;3.50;99.90
14210;DHT22;7188;56.070;12.698;2023-11-21T10:36:45;3.50;99.90
14210;DHT22;7188;56.070;12.698;2023-11-21T10:39:16;3.60;99.90
14210;DHT22;7188;56.070;12.698;2023-11-21T10:41:46;3.50;99.90
14210;DHT22;7188;56.070;12.698;2023-11-21T10:44:14;3.50;99.90
14210;DHT22;7188;56.070;12.698;2023-11-21T10:46:49;3.60;99.90
14210;DHT22;7188;56.070;12.698;2023-11-21T10:49:21;3.50;99.90
14210;DHT22;7188;56.070;12.698;2023-11-21T10:51:47;3.50;99.90
14210;DHT22;7188;56.070;12.698;2023-11-21T10:54:21;3.50;99.90
14210;DHT22;7188;56.070;12.698;2023-11-21T10:56:53;3.50;99.90
14210;DHT22;7188;56.070;12.698;2023-11-21T10:59:22;3.40;99.90
14210;DHT22;7188;56.070;12.698;2023-11-21T11:01:50;3.40;99.90
14210;DHT22;7188;56.070;12.698;2023-11-21T11:04:22;3.40;99.90
14210;DHT22;7188;56.070;12.698;2023-11-21T11:06:54;3.50;99.90
14210;DHT22;7188;56.070;12.698;2023-11-21T11:09:20;3.40;99.90
14210;DHT22;7188;56.070;12.698;2023-11-21T11:11:46;3.40;99.90
14210;DHT22;7188;56.070;12.698;2023-11-21T11:14:13;3.50;99.90
14210;DHT22;7188;56.070;12.698;2023-11-21T11:16:39;3.50;99.90
14210;DHT22;7188;56.070;12.698;2023-11-21T11:19:09;3.40;99.90
14210;DHT22;7188;56.070;12.698;2023-11-21T11:35:26;3.50;99.90
14210;DHT22;7188;56.070;12.698;2023-11-21T11:37:55;3.50;99.90
14210;DHT22;7188;56.070;12.698;2023-11-21T11:40:22;3.50;99.90
14210;DHT22;7188;56.070;12.698;2023-11-21T11:42:57;3.50;99.90
14210;DHT22;7188;56.070;12.698;2023-11-21T11:45:32;3.50;99.90
14210;DHT22;7188;56.070;12.698;2023-11-21T11:48:00;3.50;99.90
14210;DHT22;7188;56.070;12.698;2023-11-21T11:50:26;3.50;99.90
14210;DHT22;7188;56.070;12.698;2023-11-21T11:52:55;3.50;99.90
14210;DHT22;7188;56.070;12.698;2023-11-21T11:55:36;3.50;99.90
14210;DHT22;7188;56.070;12.698;2023-11-21T11:58:06;3.50;99.90
14210;DHT22;7188;56.070;12.698;2023-11-21T12:00:35;3.60;99.90
14210;DHT22;7188;56.070;12.698;2023-11-21T12:03:07;3.60;99.90
14210;DHT22;7188;56.070;12.698;2023-11-21T12:05:33;3.60;99.90
14210;DHT22;7188;56.070;12.698;2023-11-21T12:08:06;3.70;99.90
14210;DHT22;7188;56.070;12.698;2023-11-21T12:10:34;3.70;99.90
14210;DHT22;7188;56.070;12.698;2023-11-21T12:13:02;3.70;99.90
14210;DHT22;7188;56.070;12.698;2023-11-21T12:15:28;3.80;99.90
14210;DHT22;7188;56.070;12.698;2023-11-21T12:17:56;3.70;1.00
14210;DHT22;7188;56.070;12.698;2023-11-21T12:20:23;3.70;3.50
14210;DHT22;7188;56.070;12.698;2023-11-21T12:22:54;3.70;1.00
14210;DHT22;7188;56.070;12.698;2023-11-21T12:25:22;3.70;1.00
14210;DHT22;7188;56.070;12.698;2023-11-21T12:27:50;3.70;1.00
14210;DHT22;7188;56.070;12.698;2023-11-21T12:30:18;3.60;1.00
14210;DHT22;7188;56.070;12.698;2023-11-21T12:32:44;3.60;1.00
14210;DHT22;7188;56.070;12.698;2023-11-21T12:35:13;3.50;1.00
14210;DHT22;7188;56.070;12.698;2023-11-21T12:37:40;3.50;1.00
14210;DHT22;7188;56.070;12.698;2023-11-21T12:40:07;3.50;1.00
14210;DHT22;7188;56.070;12.698;2023-11-21T12:42:34;3.40;1.00
14210;DHT22;7188;56.070;12.698;2023-11-21T12:45:08;3.40;1.00
14210;DHT22;7188;56.070;12.698;2023-11-21T12:47:37;3.50;1.00
14210;DHT22;7188;56.070;12.698;2023-11-21T12:50:03;3.50;1.00
14210;DHT22;7188;56.070;12.698;2023-11-21T12:52:31;3.60;1.00
14210;DHT22;7188;56.070;12.698;2023-11-21T12:54:56;3.70;1.00
14210;DHT22;7188;56.070;12.698;2023-11-21T12:57:25;3.60;99.90
14210;DHT22;7188;56.070;12.698;2023-11-21T12:59:57;3.60;99.90
14210;DHT22;7188;56.070;12.698;2023-11-21T13:02:26;3.60;99.90
14210;DHT22;7188;56.070;12.698;2023-11-21T13:04:53;3.60;99.90
14210;DHT22;7188;56.070;12.698;2023-11-21T13:07:19;3.60;99.90
14210;DHT22;7188;56.070;12.698;2023-11-21T13:09:45;3.60;99.90
14210;DHT22;7188;56.070;12.698;2023-11-21T13:12:11;3.60;99.90
14210;DHT22;7188;56.070;12.698;2023-11-21T13:14:40;3.60;99.90
14210;DHT22;7188;56.070;12.698;2023-11-21T13:17:05;3.70;99.90
14210;DHT22;7188;56.070;12.698;2023-11-21T13:19:31;3.60;99.90
14210;DHT22;7188;56.070;12.698;2023-11-21T13:21:56;3.60;99.90
14210;DHT22;7188;56.070;12.698;2023-11-21T13:24:24;3.70;99.90
14210;DHT22;7188;56.070;12.698;2023-11-21T13:26:50;3.60;95.40
14210;DHT22;7188;56.070;12.698;2023-11-21T13:29:16;3.60;1.00
14210;DHT22;7188;56.070;12.698;2023-11-21T13:31:41;3.60;99.90
14210;DHT22;7188;56.070;12.698;2023-11-21T13:34:07;3.60;1.00
14210;DHT22;7188;56.070;12.698;2023-11-21T13:36:34;3.60;1.00
14210;DHT22;7188;56.070;12.698;2023-11-21T13:39:00;3.60;1.00
14210;DHT22;7188;56.070;12.698;2023-11-21T13:41:33;3.60;1.00
14210;DHT22;7188;56.070;12.698;2023-11-21T13:43:59;3.60;1.00
14210;DHT22;7188;56.070;12.698;2023-11-21T13:46:35;3.60;1.00
14210;DHT22;7188;56.070;12.698;2023-11-21T13:49:02;3.60;1.00
14210;DHT22;7188;56.070;12.698;2023-11-21T13:51:28;3.60;1.00
14210;DHT22;7188;56.070;12.698;2023-11-21T13:54:04;3.50;1.00
14210;DHT22;7188;56.070;12.698;2023-11-21T13:56:35;3.50;1.00
14210;DHT22;7188;56.070;12.698;2023-11-21T13:59:00;3.60;1.00
14210;DHT22;7188;56.070;12.698;2023-11-21T14:01:34;3.50;1.00
14210;DHT22;7188;56.070;12.698;2023-11-21T14:04:18;3.50;1.00
14210;DHT22;7188;56.070;12.698;2023-11-21T14:06:46;3.50;1.00
14210;DHT22;7188;56.070;12.698;2023-11-21T14:09:21;3.50;1.00
14210;DHT22;7188;56.070;12.698;2023-11-21T14:12:01;3.40;1.00
14210;DHT22;7188;56.070;12.698;2023-11-21T14:14:31;3.40;1.00
14210;DHT22;7188;56.070;12.698;2023-11-21T14:16:57;3.40;1.00
14210;DHT22;7188;56.070;12.698;2023-11-21T14:19:24;3.40;1.00
14210;DHT22;7188;56.070;12.698;2023-11-21T14:21:55;3.40;1.00
14210;DHT22;7188;56.070;12.698;2023-11-21T14:24:21;3.30;1.00
14210;DHT22;7188;56.070;12.698;2023-11-21T14:26:48;3.30;1.00
14210;DHT22;7188;56.070;12.698;2023-11-21T14:29:16;3.20;1.00
14210;DHT22;7188;56.070;12.698;2023-11-21T14:31:45;3.20;1.00
14210;DHT22;7188;56.070;12.698;2023-11-21T14:34:11;3.20;1.00
14210;DHT22;7188;56.070;12.698;2023-11-21T14:36:39;3.10;1.00
14210;DHT22;7188;56.070;12.698;2023-11-21T14:39:05;3.00;1.00
14210;DHT22;7188;56.070;12.698;2023-11-21T14:41:51;3.10;1.00
14210;DHT22;7188;56.070;12.698;2023-11-21T14:44:18;3.00;1.00
14210;DHT22;7188;56.070;12.698;2023-11-21T14:46:44;3.00;1.00
14210;DHT22;7188;56.070;12.698;2023-11-21T14:49:12;2.90;1.00
14210;DHT22;7188;56.070;12.698;2023-11-21T14:51:50;2.90;1.00
14210;DHT22;7188;56.070;12.698;2023-11-21T14:54:30;2.90;1.00
14210;DHT22;7188;56.070;12.698;2023-11-21T14:57:06;2.80;1.00
14210;DHT22;7188;56.070;12.698;2023-11-21T14:59:36;2.80;99.90
14210;DHT22;7188;56.070;12.698;2023-11-21T15:02:01;2.70;99.90
14210;DHT22;7188;56.070;12.698;2023-11-21T15:04:41;2.70;99.90
14210;DHT22;7188;56.070;12.698;2023-11-21T15:07:08;2.60;99.90
14210;DHT22;7188;56.070;12.698;2023-11-21T15:09:34;2.50;99.90
14210;DHT22;7188;56.070;12.698;2023-11-21T15:12:00;2.50;99.90
14210;DHT22;7188;56.070;12.698;2023-11-21T15:14:39;2.40;99.90
14210;DHT22;7188;56.070;12.698;2023-11-21T15:17:05;2.30;1.00
14210;DHT22;7188;56.070;12.698;2023-11-21T15:19:31;2.30;1.00
14210;DHT22;7188;56.070;12.698;2023-11-21T15:21:57;2.20;1.00
14210;DHT22;7188;56.070;12.698;2023-11-21T15:24:23;2.10;1.00
14210;DHT22;7188;56.070;12.698;2023-11-21T15:26:50;2.10;1.00
14210;DHT22;7188;56.070;12.698;2023-11-21T15:29:16;2.10;1.00
14210;DHT22;7188;56.070;12.698;2023-11-21T15:31:42;2.00;1.00
14210;DHT22;7188;56.070;12.698;2023-11-21T15:34:13;2.10;1.00
14210;DHT22;7188;56.070;12.698;2023-11-21T15:36:38;2.00;1.00
14210;DHT22;7188;56.070;12.698;2023-11-21T15:39:04;2.00;1.00
14210;DHT22;7188;56.070;12.698;2023-11-21T15:41:30;2.00;1.00
14210;DHT22;7188;56.070;12.698;2023-11-21T15:43:55;2.00;1.00
14210;DHT22;7188;56.070;12.698;2023-11-21T15:46:22;2.00;1.00
14210;DHT22;7188;56.070;12.698;2023-11-21T15:48:48;2.00;1.00
14210;DHT22;7188;56.070;12.698;2023-11-21T15:51:20;1.90;1.00
14210;DHT22;7188;56.070;12.698;2023-11-21T15:53:45;1.80;1.00
14210;DHT22;7188;56.070;12.698;2023-11-21T15:56:11;1.80;1.00
14210;DHT22;7188;56.070;12.698;2023-11-21T15:58:41;1.80;1.00
14210;DHT22;7188;56.070;12.698;2023-11-21T16:01:09;1.80;1.00
14210;DHT22;7188;56.070;12.698;2023-11-21T16:03:35;1.80;1.00
14210;DHT22;7188;56.070;12.698;2023-11-21T16:06:01;1.80;1.00